LJPZ/POW METAR and TAF weather

Enter ICAO airport designator
Station Type Date Time Source
LJPZ METAR 2023/01/30 11:30 UTC NOAA

LJPZ 301130Z VRB02KT CAVOK 09/M00 Q1018


Station Type Date Time Source
LJPZ Decoded METAR 2023/01/30 11:30 UTC NOAA

Portoroz, Slovenia (LJPZ) 45-31N 013-34E
Jan 30, 2023 - 06:30 AM EST / 2023.01.30 1130 UTC
Wind: Variable at 2 MPH (2 KT):0
Visibility: greater than 7 mile(s):0
Temperature: 48 F (9 C)
Dew Point: 32 F (0 C)
Relative Humidity: 53%
Pressure (altimeter): 30.06 in. Hg (1018 hPa)
ob: LJPZ 301130Z VRB02KT CAVOK 09/M00 Q1018
cycle: 11

Station Type Date Time Source
LJPZ TAF 2020/09/27 12:21 UTC NOAA

TAF TAF LJPZ 271100Z 2712/2821 30003KT 9999 FEW050 PROB30
TEMPO 2712/2718 -SHRA SCT040TCU BKN070
BECMG 2718/2720 06012G25KT RA

Example: see airport list